Mol, Belgium
Current Conditions -  °F | °C
As of 6:25 AM on Monday 22 Dec 2014 (Local Time) from EBDT Reporting Station
Overcast Overcast  
Wind Chill: 42°   Ceiling: 1300
Heat Index: 48°   Visibility: 6mi
Dew Point: 45°   Wind: 16mph
Humidity: 87%   Direction: 220°SW
Pressure: 30.15"   Gusts: NA
Location:  51.19°N, 5.12°E
Report Text: EBDT 220525Z AUTO 22014KT 9999 BKN013/// OVC016/// 09/07 Q1021 GRN
Loading
Personal Weather Stations






























Interactive Weather Map New forecast layout! Learn more

10-Day Weather Forecast

Advertisements
Track Severe Weather on mobile